sensor_id;sensor_type;location;lat;lon;timestamp;pressure;altitude;pressure_sealevel;temperature;humidity
38812;BME280;24553;51.640;-0.752;2022-11-20T00:02:08;100494.56;;;0.50;100.00
38812;BME280;24553;51.640;-0.752;2022-11-20T00:04:33;100504.72;;;0.53;100.00
38812;BME280;24553;51.640;-0.752;2022-11-20T00:06:58;100488.81;;;0.56;100.00
38812;BME280;24553;51.640;-0.752;2022-11-20T00:09:23;100488.56;;;0.59;100.00
38812;BME280;24553;51.640;-0.752;2022-11-20T00:11:49;100489.16;;;0.63;100.00
38812;BME280;24553;51.640;-0.752;2022-11-20T00:14:14;100495.66;;;0.69;100.00
38812;BME280;24553;51.640;-0.752;2022-11-20T00:16:39;100500.34;;;0.75;100.00
38812;BME280;24553;51.640;-0.752;2022-11-20T00:19:05;100494.91;;;0.78;100.00
38812;BME280;24553;51.640;-0.752;2022-11-20T00:21:31;100490.34;;;0.80;100.00
38812;BME280;24553;51.640;-0.752;2022-11-20T00:23:57;100489.28;;;0.82;100.00
38812;BME280;24553;51.640;-0.752;2022-11-20T00:26:23;100480.34;;;0.85;100.00
38812;BME280;24553;51.640;-0.752;2022-11-20T00:28:52;100481.06;;;0.87;100.00
38812;BME280;24553;51.640;-0.752;2022-11-20T00:31:18;100480.81;;;0.90;100.00
38812;BME280;24553;51.640;-0.752;2022-11-20T00:33:44;100471.06;;;0.92;100.00
38812;BME280;24553;51.640;-0.752;2022-11-20T00:36:12;100468.06;;;0.97;100.00
38812;BME280;24553;51.640;-0.752;2022-11-20T00:38:38;100472.22;;;0.99;100.00
38812;BME280;24553;51.640;-0.752;2022-11-20T00:41:05;100460.56;;;1.03;100.00
38812;BME280;24553;51.640;-0.752;2022-11-20T00:43:32;100467.44;;;1.04;100.00
38812;BME280;24553;51.640;-0.752;2022-11-20T00:45:58;100458.63;;;1.05;100.00
38812;BME280;24553;51.640;-0.752;2022-11-20T00:48:24;100466.22;;;1.08;100.00
38812;BME280;24553;51.640;-0.752;2022-11-20T00:50:49;100462.66;;;1.09;100.00
38812;BME280;24553;51.640;-0.752;2022-11-20T00:53:15;100460.84;;;1.10;100.00
38812;BME280;24553;51.640;-0.752;2022-11-20T00:55:40;100457.16;;;1.13;100.00
38812;BME280;24553;51.640;-0.752;2022-11-20T00:58:06;100453.47;;;1.15;100.00
38812;BME280;24553;51.640;-0.752;2022-11-20T01:00:31;100455.69;;;1.20;100.00
38812;BME280;24553;51.640;-0.752;2022-11-20T01:02:56;100449.22;;;1.24;100.00
38812;BME280;24553;51.640;-0.752;2022-11-20T01:05:22;100441.81;;;1.29;100.00
38812;BME280;24553;51.640;-0.752;2022-11-20T01:07:47;100443.22;;;1.33;100.00
38812;BME280;24553;51.640;-0.752;2022-11-20T01:10:12;100440.34;;;1.36;100.00
38812;BME280;24553;51.640;-0.752;2022-11-20T01:12:38;100439.50;;;1.36;100.00
38812;BME280;24553;51.640;-0.752;2022-11-20T01:15:03;100439.50;;;1.36;100.00
38812;BME280;24553;51.640;-0.752;2022-11-20T01:17:31;100434.84;;;1.39;100.00
38812;BME280;24553;51.640;-0.752;2022-11-20T01:19:56;100432.94;;;1.41;100.00
38812;BME280;24553;51.640;-0.752;2022-11-20T01:22:21;100423.19;;;1.43;100.00
38812;BME280;24553;51.640;-0.752;2022-11-20T01:24:47;100428.13;;;1.46;100.00
38812;BME280;24553;51.640;-0.752;2022-11-20T01:27:12;100426.91;;;1.50;100.00
38812;BME280;24553;51.640;-0.752;2022-11-20T01:29:37;100432.69;;;1.54;100.00
38812;BME280;24553;51.640;-0.752;2022-11-20T01:32:03;100413.31;;;1.57;100.00
38812;BME280;24553;51.640;-0.752;2022-11-20T01:34:28;100414.00;;;1.59;100.00
38812;BME280;24553;51.640;-0.752;2022-11-20T01:36:53;100412.09;;;1.61;100.00
38812;BME280;24553;51.640;-0.752;2022-11-20T01:39:25;100401.06;;;1.67;100.00
38812;BME280;24553;51.640;-0.752;2022-11-20T01:41:52;100402.75;;;1.68;100.00
38812;BME280;24553;51.640;-0.752;2022-11-20T01:44:59;100398.59;;;1.75;100.00
38812;BME280;24553;51.640;-0.752;2022-11-20T01:50:11;100387.06;;;1.78;100.00
38812;BME280;24553;51.640;-0.752;2022-11-20T01:52:43;100385.13;;;1.80;100.00
38812;BME280;24553;51.640;-0.752;2022-11-20T01:55:14;100378.81;;;1.82;100.00
38812;BME280;24553;51.640;-0.752;2022-11-20T01:57:44;100385.16;;;1.89;100.00
38812;BME280;24553;51.640;-0.752;2022-11-20T02:00:14;100381.28;;;1.93;100.00
38812;BME280;24553;51.640;-0.752;2022-11-20T02:02:43;100377.72;;;1.94;100.00
38812;BME280;24553;51.640;-0.752;2022-11-20T02:05:25;100381.69;;;1.99;100.00
38812;BME280;24553;51.640;-0.752;2022-11-20T02:07:52;100372.22;;;1.98;100.00
38812;BME280;24553;51.640;-0.752;2022-11-20T02:10:19;100380.75;;;2.00;100.00
38812;BME280;24553;51.640;-0.752;2022-11-20T02:12:45;100376.88;;;2.04;100.00
38812;BME280;24553;51.640;-0.752;2022-11-20T02:15:30;100369.44;;;2.09;100.00
38812;BME280;24553;51.640;-0.752;2022-11-20T02:17:57;100377.69;;;2.14;100.00
38812;BME280;24553;51.640;-0.752;2022-11-20T02:20:22;100371.53;;;2.15;100.00
38812;BME280;24553;51.640;-0.752;2022-11-20T02:25:21;100358.44;;;2.25;100.00
38812;BME280;24553;51.640;-0.752;2022-11-20T02:27:47;100353.03;;;2.26;100.00
38812;BME280;24553;51.640;-0.752;2022-11-20T02:30:13;100344.91;;;2.29;100.00
38812;BME280;24553;51.640;-0.752;2022-11-20T02:32:38;100339.41;;;2.32;100.00
38812;BME280;24553;51.640;-0.752;2022-11-20T02:37:54;100332.09;;;2.36;100.00
38812;BME280;24553;51.640;-0.752;2022-11-20T02:40:19;100328.38;;;2.38;100.00
38812;BME280;24553;51.640;-0.752;2022-11-20T02:42:45;100330.00;;;2.39;100.00
38812;BME280;24553;51.640;-0.752;2022-11-20T02:45:10;100323.38;;;2.45;100.00
38812;BME280;24553;51.640;-0.752;2022-11-20T02:47:35;100325.88;;;2.47;100.00
38812;BME280;24553;51.640;-0.752;2022-11-20T02:50:01;100320.63;;;2.47;100.00
38812;BME280;24553;51.640;-0.752;2022-11-20T02:52:26;100322.00;;;2.51;100.00
38812;BME280;24553;51.640;-0.752;2022-11-20T02:54:52;100321.72;;;2.54;100.00
38812;BME280;24553;51.640;-0.752;2022-11-20T02:57:18;100304.09;;;2.56;100.00
38812;BME280;24553;51.640;-0.752;2022-11-20T02:59:43;100316.06;;;2.58;100.00
38812;BME280;24553;51.640;-0.752;2022-11-20T03:02:09;100309.56;;;2.62;100.00
38812;BME280;24553;51.640;-0.752;2022-11-20T03:04:34;100303.22;;;2.65;100.00
38812;BME280;24553;51.640;-0.752;2022-11-20T03:06:59;100306.38;;;2.69;100.00
38812;BME280;24553;51.640;-0.752;2022-11-20T03:09:25;100296.31;;;2.74;100.00
38812;BME280;24553;51.640;-0.752;2022-11-20T03:11:50;100299.44;;;2.77;100.00
38812;BME280;24553;51.640;-0.752;2022-11-20T03:14:16;100294.22;;;2.77;100.00
38812;BME280;24553;51.640;-0.752;2022-11-20T03:16:41;100288.53;;;2.82;100.00
38812;BME280;24553;51.640;-0.752;2022-11-20T03:19:07;100287.91;;;2.98;100.00
38812;BME280;24553;51.640;-0.752;2022-11-20T03:21:33;100273.72;;;3.18;100.00
38812;BME280;24553;51.640;-0.752;2022-11-20T03:23:58;100262.72;;;3.33;100.00
38812;BME280;24553;51.640;-0.752;2022-11-20T03:26:25;100260.56;;;3.46;100.00
38812;BME280;24553;51.640;-0.752;2022-11-20T03:28:56;100268.63;;;3.53;100.00
38812;BME280;24553;51.640;-0.752;2022-11-20T03:31:27;100262.50;;;3.62;100.00
38812;BME280;24553;51.640;-0.752;2022-11-20T03:33:53;100250.88;;;3.64;100.00
38812;BME280;24553;51.640;-0.752;2022-11-20T03:36:20;100252.22;;;3.68;100.00
38812;BME280;24553;51.640;-0.752;2022-11-20T03:38:45;100245.69;;;3.72;100.00
38812;BME280;24553;51.640;-0.752;2022-11-20T03:41:13;100241.78;;;3.77;100.00
38812;BME280;24553;51.640;-0.752;2022-11-20T03:43:39;100235.56;;;3.78;100.00
38812;BME280;24553;51.640;-0.752;2022-11-20T03:46:06;100230.03;;;3.81;100.00
38812;BME280;24553;51.640;-0.752;2022-11-20T03:48:32;100218.53;;;3.82;100.00
38812;BME280;24553;51.640;-0.752;2022-11-20T03:51:30;100220.88;;;3.85;100.00
38812;BME280;24553;51.640;-0.752;2022-11-20T03:54:01;100210.53;;;3.83;100.00
38812;BME280;24553;51.640;-0.752;2022-11-20T03:56:29;100202.53;;;3.85;100.00
38812;BME280;24553;51.640;-0.752;2022-11-20T03:58:55;100195.16;;;3.88;100.00
38812;BME280;24553;51.640;-0.752;2022-11-20T04:01:26;100205.19;;;3.93;100.00
38812;BME280;24553;51.640;-0.752;2022-11-20T04:03:53;100206.81;;;3.94;100.00
38812;BME280;24553;51.640;-0.752;2022-11-20T04:06:38;100204.56;;;3.99;100.00
38812;BME280;24553;51.640;-0.752;2022-11-20T04:09:04;100196.22;;;4.04;100.00
38812;BME280;24553;51.640;-0.752;2022-11-20T04:11:32;100196.72;;;4.07;100.00
38812;BME280;24553;51.640;-0.752;2022-11-20T04:14:00;100187.59;;;4.11;100.00
38812;BME280;24553;51.640;-0.752;2022-11-20T04:16:29;100178.41;;;4.15;100.00
38812;BME280;24553;51.640;-0.752;2022-11-20T04:18:56;100185.44;;;4.15;100.00
38812;BME280;24553;51.640;-0.752;2022-11-20T04:21:22;100181.38;;;4.21;100.00
38812;BME280;24553;51.640;-0.752;2022-11-20T04:23:49;100183.53;;;4.25;100.00
38812;BME280;24553;51.640;-0.752;2022-11-20T04:26:14;100177.00;;;4.29;100.00
38812;BME280;24553;51.640;-0.752;2022-11-20T04:28:40;100179.81;;;4.36;100.00
38812;BME280;24553;51.640;-0.752;2022-11-20T04:31:14;100174.25;;;4.39;100.00
38812;BME280;24553;51.640;-0.752;2022-11-20T04:33:40;100173.13;;;4.42;100.00
38812;BME280;24553;51.640;-0.752;2022-11-20T04:36:11;100162.63;;;4.42;100.00
38812;BME280;24553;51.640;-0.752;2022-11-20T04:38:37;100162.44;;;4.43;100.00
38812;BME280;24553;51.640;-0.752;2022-11-20T04:41:04;100163.13;;;4.45;100.00
38812;BME280;24553;51.640;-0.752;2022-11-20T04:43:31;100163.94;;;4.46;100.00
38812;BME280;24553;51.640;-0.752;2022-11-20T04:45:57;100155.72;;;4.49;100.00
38812;BME280;24553;51.640;-0.752;2022-11-20T04:48:23;100154.44;;;4.53;100.00
38812;BME280;24553;51.640;-0.752;2022-11-20T04:50:49;100146.91;;;4.58;100.00
38812;BME280;24553;51.640;-0.752;2022-11-20T04:53:14;100151.69;;;4.63;100.00
38812;BME280;24553;51.640;-0.752;2022-11-20T04:55:39;100148.25;;;4.62;100.00
38812;BME280;24553;51.640;-0.752;2022-11-20T04:58:05;100134.13;;;4.63;100.00
38812;BME280;24553;51.640;-0.752;2022-11-20T05:00:30;100135.44;;;4.67;100.00
38812;BME280;24553;51.640;-0.752;2022-11-20T05:02:56;100130.19;;;4.67;100.00
38812;BME280;24553;51.640;-0.752;2022-11-20T05:05:21;100124.78;;;4.69;100.00
38812;BME280;24553;51.640;-0.752;2022-11-20T05:07:46;100125.44;;;4.71;100.00
38812;BME280;24553;51.640;-0.752;2022-11-20T05:10:12;100126.25;;;4.71;100.00
38812;BME280;24553;51.640;-0.752;2022-11-20T05:12:37;100124.13;;;4.75;100.00
38812;BME280;24553;51.640;-0.752;2022-11-20T05:15:02;100121.81;;;4.80;100.00
38812;BME280;24553;51.640;-0.752;2022-11-20T05:17:28;100111.97;;;4.82;100.00
38812;BME280;24553;51.640;-0.752;2022-11-20T05:19:53;100114.63;;;4.82;100.00
38812;BME280;24553;51.640;-0.752;2022-11-20T05:22:19;100110.84;;;4.85;100.00
38812;BME280;24553;51.640;-0.752;2022-11-20T05:24:44;100109.69;;;4.87;100.00
38812;BME280;24553;51.640;-0.752;2022-11-20T05:27:09;100108.53;;;4.90;100.00
38812;BME280;24553;51.640;-0.752;2022-11-20T05:29:35;100105.09;;;4.89;100.00
38812;BME280;24553;51.640;-0.752;2022-11-20T05:32:00;100105.75;;;4.91;100.00
38812;BME280;24553;51.640;-0.752;2022-11-20T05:34:25;100103.16;;;4.91;100.00
38812;BME280;24553;51.640;-0.752;2022-11-20T05:36:51;100118.41;;;4.96;100.00
38812;BME280;24553;51.640;-0.752;2022-11-20T05:39:16;100110.53;;;4.96;100.00
38812;BME280;24553;51.640;-0.752;2022-11-20T05:41:41;100100.66;;;4.98;100.00
38812;BME280;24553;51.640;-0.752;2022-11-20T05:44:07;100102.66;;;5.04;100.00
38812;BME280;24553;51.640;-0.752;2022-11-20T05:46:32;100107.44;;;5.09;100.00
38812;BME280;24553;51.640;-0.752;2022-11-20T05:48:58;100111.03;;;5.08;100.00
38812;BME280;24553;51.640;-0.752;2022-11-20T05:51:24;100114.31;;;5.10;100.00
38812;BME280;24553;51.640;-0.752;2022-11-20T05:53:50;100123.69;;;5.12;100.00
38812;BME280;24553;51.640;-0.752;2022-11-20T05:56:17;100118.91;;;5.16;100.00
38812;BME280;24553;51.640;-0.752;2022-11-20T05:58:43;100120.56;;;5.17;100.00
38812;BME280;24553;51.640;-0.752;2022-11-20T06:01:15;100127.09;;;5.21;100.00
38812;BME280;24553;51.640;-0.752;2022-11-20T06:03:41;100124.66;;;5.19;100.00
38812;BME280;24553;51.640;-0.752;2022-11-20T06:06:09;100125.63;;;5.18;100.00
38812;BME280;24553;51.640;-0.752;2022-11-20T06:08:34;100126.28;;;5.20;100.00
38812;BME280;24553;51.640;-0.752;2022-11-20T06:11:08;100118.59;;;5.19;100.00
38812;BME280;24553;51.640;-0.752;2022-11-20T06:13:34;100112.50;;;5.18;100.00
38812;BME280;24553;51.640;-0.752;2022-11-20T06:16:00;100113.00;;;5.22;100.00
38812;BME280;24553;51.640;-0.752;2022-11-20T06:18:27;100113.47;;;5.25;100.00
38812;BME280;24553;51.640;-0.752;2022-11-20T06:21:07;100116.09;;;5.25;100.00
38812;BME280;24553;51.640;-0.752;2022-11-20T06:23:34;100122.19;;;5.26;100.00
38812;BME280;24553;51.640;-0.752;2022-11-20T06:26:05;100128.59;;;5.32;100.00
38812;BME280;24553;51.640;-0.752;2022-11-20T06:28:31;100113.16;;;5.29;100.00
38812;BME280;24553;51.640;-0.752;2022-11-20T06:30:57;100109.69;;;5.28;100.00
38812;BME280;24553;51.640;-0.752;2022-11-20T06:33:22;100111.19;;;5.31;100.00
38812;BME280;24553;51.640;-0.752;2022-11-20T06:35:48;100101.16;;;5.26;100.00
38812;BME280;24553;51.640;-0.752;2022-11-20T06:38:13;100100.53;;;5.24;100.00
38812;BME280;24553;51.640;-0.752;2022-11-20T06:40:42;100101.00;;;5.28;100.00
38812;BME280;24553;51.640;-0.752;2022-11-20T06:43:09;100105.91;;;5.31;100.00
38812;BME280;24553;51.640;-0.752;2022-11-20T06:45:34;100105.59;;;5.34;100.00
38812;BME280;24553;51.640;-0.752;2022-11-20T06:48:00;100096.72;;;5.35;100.00
38812;BME280;24553;51.640;-0.752;2022-11-20T06:50:25;100089.66;;;5.27;100.00
38812;BME280;24553;51.640;-0.752;2022-11-20T06:52:50;100082.75;;;5.18;100.00
38812;BME280;24553;51.640;-0.752;2022-11-20T06:55:16;100084.41;;;5.11;100.00
38812;BME280;24553;51.640;-0.752;2022-11-20T06:57:41;100085.56;;;5.08;100.00
38812;BME280;24553;51.640;-0.752;2022-11-20T07:00:07;100072.94;;;5.03;100.00
38812;BME280;24553;51.640;-0.752;2022-11-20T07:02:32;100077.00;;;4.98;100.00
38812;BME280;24553;51.640;-0.752;2022-11-20T07:04:57;100078.00;;;4.97;100.00
38812;BME280;24553;51.640;-0.752;2022-11-20T07:07:23;100077.00;;;4.98;100.00
38812;BME280;24553;51.640;-0.752;2022-11-20T07:09:48;100067.84;;;4.94;100.00
38812;BME280;24553;51.640;-0.752;2022-11-20T07:12:14;100066.50;;;4.90;100.00
38812;BME280;24553;51.640;-0.752;2022-11-20T07:14:39;100059.63;;;4.80;100.00
38812;BME280;24553;51.640;-0.752;2022-11-20T07:17:04;100071.59;;;4.75;100.00
38812;BME280;24553;51.640;-0.752;2022-11-20T07:19:29;100070.94;;;4.65;100.00
38812;BME280;24553;51.640;-0.752;2022-11-20T07:21:55;100061.56;;;4.54;100.00
38812;BME280;24553;51.640;-0.752;2022-11-20T07:24:20;100057.78;;;4.40;100.00
38812;BME280;24553;51.640;-0.752;2022-11-20T07:26:46;100059.25;;;4.34;100.00
38812;BME280;24553;51.640;-0.752;2022-11-20T07:29:14;100063.34;;;4.29;100.00
38812;BME280;24553;51.640;-0.752;2022-11-20T07:31:39;100059.03;;;4.20;100.00
38812;BME280;24553;51.640;-0.752;2022-11-20T07:34:05;100064.59;;;4.08;100.00
38812;BME280;24553;51.640;-0.752;2022-11-20T07:36:30;100073.72;;;3.96;100.00
38812;BME280;24553;51.640;-0.752;2022-11-20T07:38:56;100072.88;;;3.87;100.00
38812;BME280;24553;51.640;-0.752;2022-11-20T07:41:21;100077.91;;;3.81;100.00
38812;BME280;24553;51.640;-0.752;2022-11-20T07:43:46;100070.34;;;3.78;100.00
38812;BME280;24553;51.640;-0.752;2022-11-20T07:46:11;100067.88;;;3.76;100.00
38812;BME280;24553;51.640;-0.752;2022-11-20T07:48:37;100077.56;;;3.76;100.00
38812;BME280;24553;51.640;-0.752;2022-11-20T07:51:02;100074.63;;;3.79;100.00
38812;BME280;24553;51.640;-0.752;2022-11-20T07:53:28;100091.16;;;3.79;100.00
38812;BME280;24553;51.640;-0.752;2022-11-20T07:55:53;100086.56;;;3.73;100.00
38812;BME280;24553;51.640;-0.752;2022-11-20T07:58:20;100094.06;;;3.68;100.00
38812;BME280;24553;51.640;-0.752;2022-11-20T08:00:45;100100.75;;;3.62;100.00
38812;BME280;24553;51.640;-0.752;2022-11-20T08:03:11;100098.72;;;3.56;100.00
38812;BME280;24553;51.640;-0.752;2022-11-20T08:05:37;100100.84;;;3.53;100.00
38812;BME280;24553;51.640;-0.752;2022-11-20T08:08:02;100102.00;;;3.50;100.00
38812;BME280;24553;51.640;-0.752;2022-11-20T08:10:28;100100.66;;;3.46;100.00
38812;BME280;24553;51.640;-0.752;2022-11-20T08:12:53;100112.94;;;3.45;100.00
38812;BME280;24553;51.640;-0.752;2022-11-20T08:15:39;100112.88;;;3.37;100.00
38812;BME280;24553;51.640;-0.752;2022-11-20T08:18:09;100115.81;;;3.34;100.00
38812;BME280;24553;51.640;-0.752;2022-11-20T08:20:38;100111.03;;;3.30;100.00
38812;BME280;24553;51.640;-0.752;2022-11-20T08:23:05;100118.56;;;3.33;100.00
38812;BME280;24553;51.640;-0.752;2022-11-20T08:25:32;100118.06;;;3.55;100.00
38812;BME280;24553;51.640;-0.752;2022-11-20T08:27:59;100120.50;;;4.09;100.00
38812;BME280;24553;51.640;-0.752;2022-11-20T08:30:25;100135.00;;;4.21;100.00
38812;BME280;24553;51.640;-0.752;2022-11-20T08:32:51;100123.34;;;4.24;100.00
38812;BME280;24553;51.640;-0.752;2022-11-20T08:35:17;100123.03;;;4.27;100.00
38812;BME280;24553;51.640;-0.752;2022-11-20T08:37:46;100130.81;;;4.45;100.00
38812;BME280;24553;51.640;-0.752;2022-11-20T08:40:11;100129.53;;;4.57;100.00
38812;BME280;24553;51.640;-0.752;2022-11-20T08:42:37;100132.38;;;5.05;100.00
38812;BME280;24553;51.640;-0.752;2022-11-20T08:45:02;100130.88;;;5.27;100.00
38812;BME280;24553;51.640;-0.752;2022-11-20T08:47:28;100134.19;;;5.45;100.00
38812;BME280;24553;51.640;-0.752;2022-11-20T08:49:53;100144.19;;;5.58;100.00
38812;BME280;24553;51.640;-0.752;2022-11-20T08:52:19;100142.22;;;5.68;100.00
38812;BME280;24553;51.640;-0.752;2022-11-20T08:54:44;100138.91;;;5.66;100.00
38812;BME280;24553;51.640;-0.752;2022-11-20T08:57:09;100140.53;;;5.67;100.00
38812;BME280;24553;51.640;-0.752;2022-11-20T08:59:35;100137.09;;;5.66;100.00
38812;BME280;24553;51.640;-0.752;2022-11-20T09:02:00;100142.03;;;5.69;100.00
38812;BME280;24553;51.640;-0.752;2022-11-20T09:04:25;100145.31;;;5.72;100.00
38812;BME280;24553;51.640;-0.752;2022-11-20T09:06:51;100148.44;;;5.67;100.00
38812;BME280;24553;51.640;-0.752;2022-11-20T09:09:17;100175.22;;;5.62;100.00
38812;BME280;24553;51.640;-0.752;2022-11-20T09:11:43;100178.72;;;5.63;100.00
38812;BME280;24553;51.640;-0.752;2022-11-20T09:14:09;100178.50;;;5.73;100.00
38812;BME280;24553;51.640;-0.752;2022-11-20T09:16:34;100182.91;;;5.88;100.00
38812;BME280;24553;51.640;-0.752;2022-11-20T09:19:00;100180.13;;;6.06;100.00
38812;BME280;24553;51.640;-0.752;2022-11-20T09:21:25;100182.75;;;6.15;100.00
38812;BME280;24553;51.640;-0.752;2022-11-20T09:23:50;100172.16;;;6.31;100.00
38812;BME280;24553;51.640;-0.752;2022-11-20T09:26:16;100169.81;;;6.36;100.00
38812;BME280;24553;51.640;-0.752;2022-11-20T09:28:41;100172.38;;;6.52;100.00
38812;BME280;24553;51.640;-0.752;2022-11-20T09:31:08;100168.38;;;6.65;100.00
38812;BME280;24553;51.640;-0.752;2022-11-20T09:33:34;100169.47;;;6.70;100.00
38812;BME280;24553;51.640;-0.752;2022-11-20T09:36:00;100152.81;;;6.78;100.00
38812;BME280;24553;51.640;-0.752;2022-11-20T09:38:26;100155.22;;;6.88;100.00
38812;BME280;24553;51.640;-0.752;2022-11-20T09:40:57;100142.34;;;6.93;100.00
38812;BME280;24553;51.640;-0.752;2022-11-20T09:43:28;100137.38;;;6.98;100.00
38812;BME280;24553;51.640;-0.752;2022-11-20T09:46:19;100135.38;;;7.00;100.00
38812;BME280;24553;51.640;-0.752;2022-11-20T09:56:43;100127.19;;;7.33;100.00
38812;BME280;24553;51.640;-0.752;2022-11-20T09:59:45;100116.88;;;7.46;100.00
38812;BME280;24553;51.640;-0.752;2022-11-20T10:05:06;100121.69;;;7.57;100.00
38812;BME280;24553;51.640;-0.752;2022-11-20T10:07:44;100104.44;;;7.70;100.00
38812;BME280;24553;51.640;-0.752;2022-11-20T10:10:18;100100.78;;;7.71;100.00
38812;BME280;24553;51.640;-0.752;2022-11-20T10:18:11;100081.84;;;7.82;100.00
38812;BME280;24553;51.640;-0.752;2022-11-20T10:21:03;100089.31;;;7.93;100.00
38812;BME280;24553;51.640;-0.752;2022-11-20T10:29:36;100100.84;;;8.07;100.00
38812;BME280;24553;51.640;-0.752;2022-11-20T10:38:42;100073.03;;;8.26;100.00
38812;BME280;24553;51.640;-0.752;2022-11-20T10:41:16;100079.06;;;8.35;100.00
38812;BME280;24553;51.640;-0.752;2022-11-20T10:44:14;100071.84;;;8.43;100.00
38812;BME280;24553;51.640;-0.752;2022-11-20T10:47:00;100045.97;;;8.39;100.00
38812;BME280;24553;51.640;-0.752;2022-11-20T10:49:26;100050.44;;;8.38;100.00
38812;BME280;24553;51.640;-0.752;2022-11-20T10:54:47;100026.81;;;8.51;100.00
38812;BME280;24553;51.640;-0.752;2022-11-20T10:58:22;100024.63;;;8.55;100.00
38812;BME280;24553;51.640;-0.752;2022-11-20T11:00:23;100022.88;;;8.62;100.00
38812;BME280;24553;51.640;-0.752;2022-11-20T11:07:48;100018.88;;;8.94;100.00
38812;BME280;24553;51.640;-0.752;2022-11-20T11:12:45;100000.84;;;9.05;100.00
38812;BME280;24553;51.640;-0.752;2022-11-20T11:15:15;99999.25;;;9.10;100.00
38812;BME280;24553;51.640;-0.752;2022-11-20T11:17:49;100016.78;;;9.18;100.00
38812;BME280;24553;51.640;-0.752;2022-11-20T11:20:22;100014.59;;;9.22;100.00
38812;BME280;24553;51.640;-0.752;2022-11-20T11:25:29;100009.97;;;9.30;100.00
38812;BME280;24553;51.640;-0.752;2022-11-20T11:27:58;100013.84;;;9.34;100.00
38812;BME280;24553;51.640;-0.752;2022-11-20T11:30:25;100005.91;;;9.34;100.00
38812;BME280;24553;51.640;-0.752;2022-11-20T11:33:06;100001.63;;;9.33;100.00
38812;BME280;24553;51.640;-0.752;2022-11-20T11:35:32;99982.47;;;9.31;100.00
38812;BME280;24553;51.640;-0.752;2022-11-20T11:38:14;99998.19;;;9.39;100.00
38812;BME280;24553;51.640;-0.752;2022-11-20T11:40:40;99993.13;;;9.45;100.00
38812;BME280;24553;51.640;-0.752;2022-11-20T11:43:22;99989.88;;;9.43;100.00
38812;BME280;24553;51.640;-0.752;2022-11-20T11:48:58;99991.91;;;9.41;100.00
38812;BME280;24553;51.640;-0.752;2022-11-20T11:51:38;99983.41;;;9.45;100.00
38812;BME280;24553;51.640;-0.752;2022-11-20T11:57:03;99983.63;;;9.57;100.00
38812;BME280;24553;51.640;-0.752;2022-11-20T12:05:18;99988.16;;;9.63;100.00
38812;BME280;24553;51.640;-0.752;2022-11-20T12:07:58;99990.81;;;9.70;100.00
38812;BME280;24553;51.640;-0.752;2022-11-20T12:10:40;99998.41;;;9.79;100.00
38812;BME280;24553;51.640;-0.752;2022-11-20T12:15:49;99987.00;;;9.79;100.00
38812;BME280;24553;51.640;-0.752;2022-11-20T12:18:17;99996.16;;;9.83;100.00
38812;BME280;24553;51.640;-0.752;2022-11-20T12:32:23;99978.25;;;9.78;100.00
38812;BME280;24553;51.640;-0.752;2022-11-20T12:35:20;99963.41;;;9.84;100.00
38812;BME280;24553;51.640;-0.752;2022-11-20T12:38:19;99969.72;;;9.90;100.00
38812;BME280;24553;51.640;-0.752;2022-11-20T12:52:47;99975.84;;;9.83;100.00
38812;BME280;24553;51.640;-0.752;2022-11-20T12:58:08;99991.72;;;9.83;100.00
38812;BME280;24553;51.640;-0.752;2022-11-20T13:00:41;99982.94;;;9.83;100.00
38812;BME280;24553;51.640;-0.752;2022-11-20T13:08:29;99985.00;;;9.46;100.00
38812;BME280;24553;51.640;-0.752;2022-11-20T13:13:46;99982.78;;;9.50;100.00
38812;BME280;24553;51.640;-0.752;2022-11-20T13:19:17;99983.69;;;9.64;100.00
38812;BME280;24553;51.640;-0.752;2022-11-20T13:21:45;99986.97;;;9.72;100.00
38812;BME280;24553;51.640;-0.752;2022-11-20T13:24:25;99969.25;;;9.73;100.00
38812;BME280;24553;51.640;-0.752;2022-11-20T13:29:29;99968.78;;;9.63;100.00
38812;BME280;24553;51.640;-0.752;2022-11-20T13:34:38;99954.13;;;9.53;100.00
38812;BME280;24553;51.640;-0.752;2022-11-20T13:37:04;99959.81;;;9.50;100.00
38812;BME280;24553;51.640;-0.752;2022-11-20T13:39:34;99956.13;;;9.51;100.00
38812;BME280;24553;51.640;-0.752;2022-11-20T13:44:43;99944.28;;;9.41;100.00
38812;BME280;24553;51.640;-0.752;2022-11-20T13:47:24;99943.25;;;9.35;100.00
38812;BME280;24553;51.640;-0.752;2022-11-20T13:49:51;99939.56;;;9.29;100.00
38812;BME280;24553;51.640;-0.752;2022-11-20T13:52:36;99945.22;;;9.26;100.00
38812;BME280;24553;51.640;-0.752;2022-11-20T14:03:31;99919.38;;;9.28;100.00
38812;BME280;24553;51.640;-0.752;2022-11-20T14:06:04;99929.97;;;9.28;100.00
38812;BME280;24553;51.640;-0.752;2022-11-20T14:08:44;99944.63;;;9.24;100.00
38812;BME280;24553;51.640;-0.752;2022-11-20T14:11:20;99944.97;;;9.14;100.00
38812;BME280;24553;51.640;-0.752;2022-11-20T14:16:29;99950.19;;;9.08;100.00
38812;BME280;24553;51.640;-0.752;2022-11-20T14:18:57;99953.06;;;9.06;100.00
38812;BME280;24553;51.640;-0.752;2022-11-20T14:21:27;99961.16;;;9.05;100.00
38812;BME280;24553;51.640;-0.752;2022-11-20T14:24:13;99961.16;;;9.05;100.00
38812;BME280;24553;51.640;-0.752;2022-11-20T14:26:44;99968.47;;;9.03;100.00
38812;BME280;24553;51.640;-0.752;2022-11-20T14:29:15;99976.22;;;9.04;100.00
38812;BME280;24553;51.640;-0.752;2022-11-20T14:31:42;99983.94;;;9.06;100.00
38812;BME280;24553;51.640;-0.752;2022-11-20T14:34:28;99965.53;;;9.19;100.00
38812;BME280;24553;51.640;-0.752;2022-11-20T14:36:58;99966.59;;;9.25;100.00
38812;BME280;24553;51.640;-0.752;2022-11-20T14:39:35;99955.78;;;9.20;100.00
38812;BME280;24553;51.640;-0.752;2022-11-20T14:42:01;99952.69;;;9.16;100.00
38812;BME280;24553;51.640;-0.752;2022-11-20T14:44:31;99950.19;;;9.08;100.00
38812;BME280;24553;51.640;-0.752;2022-11-20T14:46:57;99955.50;;;9.08;100.00
38812;BME280;24553;51.640;-0.752;2022-11-20T14:49:24;99947.16;;;9.11;100.00